Time;durP1;ratioP1;P1;durP2;ratioP2;P2;SDS_P1;SDS_P2;PMS_P1;PMS_P2;Temp;Humidity;BMP_temperature;BMP_pressure;BME280_temperature;BME280_humidity;BME280_pressure;Samples;Min_cycle;Max_cycle;Signal;HPM_P1;HPM_P2
2021/03/29 08:03:58;;;;;;;12.40;3.40;;;15.20;99.90;;;-143.32;56.33;53491.28;4822974;29;21048;-92
2021/03/29 08:06:46;;;;;;;19.40;5.13;;;15.40;99.90;;;-143.32;55.36;53438.78;4826925;29;20457;-90
2021/03/29 08:09:20;;;;;;;13.07;4.37;;;15.60;99.90;;;-143.32;53.92;53475.13;4828119;29;20440;-91
2021/03/29 08:22:02;;;;;;;13.53;4.50;;;15.80;99.90;;;-143.32;53.10;53426.66;4777170;29;20478;-92
2021/03/29 08:39:46;;;;;;;17.40;4.23;;;15.90;99.90;;;-143.32;51.22;53444.84;4753791;30;20851;-91
2021/03/29 08:46:50;;;;;;;18.63;4.63;;;16.00;99.90;;;-143.32;51.34;53493.31;4758786;30;20439;-92
2021/03/29 09:18:49;;;;;;;11.50;3.40;;;16.30;99.90;;;-143.32;48.43;53388.28;4748667;30;20438;-93
2021/03/29 09:21:51;;;;;;;15.30;4.20;;;16.60;99.90;;;-143.32;47.45;53366.06;4751175;30;20469;-93
2021/03/29 09:24:26;;;;;;;12.00;4.70;;;16.80;99.90;;;-143.32;46.72;53402.41;4775504;30;20459;-93
2021/03/29 09:27:07;;;;;;;15.40;4.20;;;17.00;99.90;;;-143.32;49.28;53436.75;4780481;30;20496;-93
2021/03/29 09:29:41;;;;;;;22.70;4.20;;;16.60;99.90;;;-143.32;50.88;53442.81;4777834;30;20459;-91
2021/03/29 09:32:19;;;;;;;10.43;3.50;;;16.30;99.90;;;-143.32;49.67;53454.94;4785139;29;20458;-93
2021/03/29 09:34:49;;;;;;;8.60;3.90;;;16.20;99.90;;;-143.32;49.98;53465.03;4833718;29;20601;-91
2021/03/29 09:41:06;;;;;;;12.73;3.50;;;16.20;99.90;;;-143.32;49.62;53458.97;4829759;29;20473;-91
2021/03/29 09:43:42;;;;;;;12.80;3.37;;;16.20;99.90;;;-143.32;48.41;53471.09;4830244;29;20436;-92
2021/03/29 09:46:15;;;;;;;15.20;3.77;;;16.40;99.90;;;-143.32;44.82;53513.50;4827688;29;20448;-93
2021/03/29 09:48:42;;;;;;;10.43;3.00;;;16.50;99.90;;;-143.32;43.69;53519.56;4826773;29;20527;-90
2021/03/29 09:51:19;;;;;;;11.90;3.50;;;16.50;99.90;;;-143.32;41.95;53541.78;4827123;29;20459;-90
2021/03/29 09:53:54;;;;;;;17.73;3.13;;;16.60;99.90;;;-143.32;40.95;53539.75;4827220;29;20456;-90
2021/03/29 09:56:28;;;;;;;5.70;3.03;;;16.60;99.90;;;-143.32;40.15;53566.03;4833318;29;20476;-91
2021/03/29 09:59:10;;;;;;;13.73;3.20;;;16.60;99.90;;;-143.32;39.96;53584.19;4826890;29;20445;-91
2021/03/29 10:01:44;;;;;;;10.27;3.17;;;16.70;99.90;;;-143.32;39.32;53622.56;4828695;29;20480;-91
2021/03/29 10:04:22;;;;;;;12.43;3.30;;;16.50;99.90;;;-143.32;40.08;53610.47;4829628;29;20791;-90
2021/03/29 10:07:05;;;;;;;10.97;3.27;;;16.50;99.90;;;-143.32;39.00;53616.50;4826883;29;20602;-91
2021/03/29 10:09:36;;;;;;;8.93;3.10;;;16.70;99.90;;;-143.32;38.23;53630.66;4825884;29;20916;-91
2021/03/29 10:12:23;;;;;;;12.90;3.67;;;16.60;99.90;;;-143.32;38.28;53606.41;4828617;29;20448;-92
2021/03/29 10:14:52;;;;;;;9.70;3.27;;;16.60;99.90;;;-143.32;37.22;53630.66;4831038;29;20447;-92
2021/03/29 10:17:26;;;;;;;7.10;3.50;;;16.80;99.90;;;-143.32;36.82;53642.78;4831030;29;20497;-93
2021/03/29 10:20:48;;;;;;;9.17;3.43;;;16.80;99.90;;;-143.32;36.82;53644.78;4832422;29;20441;-94
2021/03/29 10:23:32;;;;;;;8.77;3.10;;;16.90;99.90;;;-143.32;36.14;53638.72;4816866;29;20797;-93
2021/03/29 10:26:20;;;;;;;10.60;3.07;;;17.00;99.90;;;-143.32;36.09;53652.88;4841085;29;20475;-92
2021/03/29 10:32:33;;;;;;;6.60;2.70;;;17.30;99.90;;;-143.32;36.43;53606.41;4839817;29;20424;-90
2021/03/29 10:35:07;;;;;;;10.47;3.43;;;17.30;99.90;;;-143.32;35.62;53644.78;4818405;29;20803;-92
2021/03/29 10:37:34;;;;;;;8.90;3.80;;;17.30;99.90;;;-143.32;34.97;53697.31;4816712;29;20461;-92
2021/03/29 10:40:05;;;;;;;13.67;3.60;;;17.20;99.90;;;-143.32;34.65;53745.78;4818894;29;20510;-91
2021/03/29 10:42:38;;;;;;;11.90;3.20;;;17.20;99.90;;;-143.32;34.03;53743.78;4821109;29;20562;-93
2021/03/29 10:45:41;;;;;;;12.70;3.00;;;17.20;99.90;;;-143.32;33.91;53770.03;4824501;29;20461;-93
2021/03/29 10:48:51;;;;;;;10.10;3.73;;;17.10;99.90;;;-143.32;34.14;53763.97;4816555;29;20601;-92
2021/03/29 10:55:13;;;;;;;11.53;2.70;;;17.20;99.90;;;-143.32;33.71;53782.16;4818049;29;20521;-92
2021/03/29 10:57:44;;;;;;;14.93;3.00;;;17.30;99.90;;;-143.32;33.03;53818.50;4817799;29;20540;-92
2021/03/29 11:00:12;;;;;;;15.57;3.30;;;17.30;99.90;;;-143.32;33.81;53774.06;4821731;29;20476;-93
2021/03/29 11:05:26;;;;;;;9.17;3.00;;;17.40;99.90;;;-143.32;32.82;53810.44;4811572;29;21337;-92
2021/03/29 11:15:04;;;;;;;8.37;2.80;;;17.60;99.90;;;-143.32;30.09;54000.31;4765131;30;20449;-93
2021/03/29 11:17:31;;;;;;;8.43;3.10;;;17.70;99.90;;;-143.32;30.28;53984.16;4818043;29;20543;-92
2021/03/29 11:20:01;;;;;;;7.20;2.50;;;17.70;99.90;;;-143.32;30.11;53978.09;4815721;29;20540;-93
2021/03/29 11:22:29;;;;;;;8.73;3.00;;;17.80;99.90;;;-143.32;30.69;53990.22;4818250;29;20507;-91
2021/03/29 11:24:56;;;;;;;9.03;2.80;;;17.90;99.90;;;-143.32;30.13;54026.56;4808502;29;20469;-91
2021/03/29 11:27:23;;;;;;;8.20;2.50;;;18.00;99.90;;;-143.32;29.35;54056.88;4807812;29;20508;-93
2021/03/29 11:30:09;;;;;;;13.40;2.77;;;18.00;99.90;;;-143.32;28.81;54099.28;4807835;29;20464;-92
2021/03/29 11:37:14;;;;;;;5.70;2.30;;;18.20;99.90;;;-143.32;29.02;54141.72;4807593;29;20460;-92
2021/03/29 11:40:15;;;;;;;4.50;2.20;;;18.20;99.90;;;-143.32;28.94;54149.78;4811773;29;20475;-91
2021/03/29 11:42:45;;;;;;;7.93;2.90;;;18.20;99.90;;;-143.32;29.26;54143.75;4817947;29;20518;-93
2021/03/29 11:45:14;;;;;;;10.87;2.83;;;18.30;99.90;;;-143.32;28.60;54186.16;4812692;29;20863;-91
2021/03/29 11:47:54;;;;;;;12.80;2.83;;;18.30;99.90;;;-143.32;27.92;54234.66;4816610;29;20493;-91
2021/03/29 11:50:32;;;;;;;9.50;2.23;;;18.50;99.90;;;-143.32;28.42;54202.31;4811964;29;20479;-93
2021/03/29 11:53:46;;;;;;;7.70;3.07;;;18.50;99.90;;;-143.32;28.07;54293.22;4818201;29;20513;-94
2021/03/29 12:07:29;;;;;;;13.03;2.83;;;18.70;99.90;;;-143.32;27.44;54333.63;4780613;29;21007;-90
2021/03/29 12:13:10;;;;;;;7.80;2.90;;;18.90;99.90;;;-143.32;27.06;54466.97;4822563;29;20477;-92
2021/03/29 12:15:40;;;;;;;6.97;2.33;;;18.90;99.90;;;-143.32;27.15;54426.56;4824528;29;20465;-92
2021/03/29 12:18:06;;;;;;;8.33;2.70;;;19.00;99.90;;;-143.32;26.72;54475.06;4824162;29;20483;-93
2021/03/29 12:20:33;;;;;;;12.77;3.03;;;19.00;99.90;;;-143.32;26.13;54523.56;4811423;29;20593;-91
2021/03/29 12:23:02;;;;;;;7.93;2.43;;;19.00;99.90;;;-143.32;26.24;54582.13;4808301;29;20465;-92
2021/03/29 12:25:38;;;;;;;6.53;2.50;;;19.00;99.90;;;-143.32;26.55;54600.31;4816660;29;20433;-92
2021/03/29 12:32:07;;;;;;;15.80;3.17;;;19.00;99.90;;;-143.32;26.05;54677.09;4815785;29;20424;-92
2021/03/29 12:34:43;;;;;;;5.83;2.33;;;19.10;99.90;;;-143.32;25.95;54675.09;4819461;29;20445;-92
2021/03/29 12:37:21;;;;;;;7.10;2.70;;;19.20;99.90;;;-143.32;26.32;54691.25;4825680;29;20449;-93
2021/03/29 12:40:04;;;;;;;7.37;2.80;;;19.10;99.90;;;-143.32;26.67;54656.91;4825702;29;20477;-92
2021/03/29 12:45:24;;;;;;;7.20;2.60;;;19.30;99.90;;;-143.32;26.67;54697.31;4849963;24;20483;-92
2021/03/29 12:54:17;;;;;;;8.50;2.50;;;19.30;99.90;;;-143.32;26.17;54755.91;4960231;24;20855;-90
2021/03/29 12:56:45;;;;;;;9.20;2.80;;;19.40;99.90;;;-143.32;26.60;54766.00;4825085;29;20987;-90
2021/03/29 12:59:12;;;;;;;8.50;2.60;;;19.40;99.90;;;-143.32;26.05;54757.94;4824705;29;20947;-89
2021/03/29 13:01:41;;;;;;;12.97;2.70;;;19.50;99.90;;;-143.32;25.09;54856.94;4824624;29;20455;-89
2021/03/29 13:04:21;;;;;;;18.73;2.63;;;19.50;99.90;;;-143.32;25.71;54824.59;4824590;29;20471;-89
2021/03/29 13:07:13;;;;;;;13.20;2.90;;;19.60;99.90;;;-143.32;25.96;54858.94;4824531;29;20490;-93
2021/03/29 13:12:38;;;;;;;9.43;2.70;;;19.40;99.90;;;-143.32;26.12;54873.09;4824528;29;20936;-93
2021/03/29 13:15:08;;;;;;;11.10;2.67;;;19.40;99.90;;;-143.32;26.29;54860.97;4824459;29;20471;-86
2021/03/29 13:17:53;;;;;;;7.73;2.60;;;19.40;99.90;;;-143.32;26.28;54875.13;4833922;29;20447;-91
2021/03/29 13:20:24;;;;;;;12.03;3.50;;;19.50;99.90;;;-143.32;26.04;54901.38;4843431;29;20416;-88
2021/03/29 13:22:54;;;;;;;10.70;2.77;;;19.60;99.90;;;-143.32;26.14;54893.31;4843457;29;20777;-91
2021/03/29 13:25:26;;;;;;;6.10;2.10;;;19.60;99.90;;;-143.32;26.24;54867.03;4843254;29;20454;-91
2021/03/29 13:27:55;;;;;;;6.47;2.87;;;19.60;99.90;;;-143.32;26.38;54897.34;4844324;29;20491;-91
2021/03/29 13:30:25;;;;;;;15.77;3.43;;;19.60;99.90;;;-143.32;26.75;54891.28;4845561;29;20455;-91
2021/03/29 13:33:09;;;;;;;11.30;3.30;;;19.60;99.90;;;-143.32;26.79;54903.41;4844954;29;20451;-92
2021/03/29 13:35:42;;;;;;;11.43;4.90;;;19.60;99.90;;;-143.32;26.65;54844.81;4844031;29;20951;-92
2021/03/29 13:38:26;;;;;;;8.73;3.20;;;19.70;99.90;;;-143.32;25.90;54976.16;4844065;29;20954;-90
2021/03/29 13:45:48;;;;;;;6.90;2.70;;;19.70;99.90;;;-143.32;26.64;54957.97;4851842;29;20470;-93
2021/03/29 14:03:33;;;;;;;8.33;2.77;;;19.80;99.90;;;-143.32;26.43;54990.28;4831966;29;20455;-90
2021/03/29 14:08:51;;;;;;;10.37;2.70;;;19.90;99.90;;;-143.32;26.17;55014.53;4829053;29;20534;-93
2021/03/29 14:11:22;;;;;;;9.00;3.30;;;20.00;99.90;;;-143.32;26.21;55000.41;4828773;29;20466;-90
2021/03/29 14:14:29;;;;;;;7.67;2.40;;;19.90;99.90;;;-143.32;25.97;55083.25;4828096;29;20524;-91
2021/03/29 14:17:05;;;;;;;9.73;3.03;;;19.90;99.90;;;-143.32;26.26;55046.88;4827978;29;20920;-91
2021/03/29 14:19:37;;;;;;;15.90;3.50;;;19.80;99.90;;;-143.32;26.20;55032.72;4829030;29;20443;-90
2021/03/29 14:22:08;;;;;;;18.63;3.97;;;19.80;99.90;;;-143.32;25.06;55143.88;4827525;29;20820;-91
2021/03/29 14:24:48;;;;;;;16.03;5.30;;;19.90;99.90;;;-143.32;24.95;55158.00;4827197;29;20535;-92
2021/03/29 14:30:36;;;;;;;8.23;2.90;;;19.90;99.90;;;-143.32;24.60;55236.81;4827407;29;20535;-91
2021/03/29 14:33:08;;;;;;;10.10;2.33;;;19.90;99.90;;;-143.32;24.83;55176.19;4827847;29;20617;-93
2021/03/29 14:35:50;;;;;;;9.27;2.60;;;19.90;99.90;;;-143.32;25.23;55186.31;4829021;29;20444;-93
2021/03/29 14:44:06;;;;;;;8.60;2.67;;;20.00;99.90;;;-143.32;24.30;55253.00;4825962;29;20472;-91
2021/03/29 14:46:33;;;;;;;4.60;2.33;;;19.90;99.90;;;-143.32;24.10;55261.06;4828083;29;20451;-90
2021/03/29 14:49:03;;;;;;;22.40;2.90;;;20.00;99.90;;;-143.32;24.03;55305.53;4826993;29;20496;-92
2021/03/29 14:51:31;;;;;;;7.93;2.90;;;20.00;99.90;;;-143.32;24.25;55327.75;4826712;29;20455;-90
2021/03/29 14:54:04;;;;;;;8.70;2.40;;;20.00;99.90;;;-143.32;24.33;55287.34;4827487;29;20457;-94
2021/03/29 14:56:31;;;;;;;7.10;2.57;;;20.00;99.90;;;-143.32;24.32;55317.66;4827412;29;20421;-90
2021/03/29 14:58:58;;;;;;;8.00;2.80;;;20.00;99.90;;;-143.32;24.24;55343.94;4826104;29;20467;-92
2021/03/29 15:01:25;;;;;;;10.50;3.00;;;20.00;99.90;;;-143.32;24.25;55370.19;4827473;29;20456;-91
2021/03/29 15:03:53;;;;;;;15.83;3.13;;;19.90;99.90;;;-143.32;24.19;55396.47;4827144;29;20456;-92
2021/03/29 15:06:32;;;;;;;7.43;3.00;;;19.90;99.90;;;-143.32;23.57;55434.88;4826590;29;20475;-91
2021/03/29 15:09:00;;;;;;;7.87;2.23;;;19.90;99.90;;;-143.32;23.67;55447.00;4826348;29;20487;-93
2021/03/29 15:11:27;;;;;;;6.07;2.73;;;19.90;99.90;;;-143.32;23.92;55418.69;4826347;29;20468;-92
2021/03/29 15:14:01;;;;;;;7.40;2.43;;;19.90;99.90;;;-143.32;23.98;55430.81;4826927;29;20836;-93
2021/03/29 15:16:28;;;;;;;6.30;2.43;;;19.90;99.90;;;-143.32;23.88;55432.84;4827475;29;20444;-91
2021/03/29 15:19:02;;;;;;;9.20;2.47;;;20.00;99.90;;;-143.32;24.08;55465.19;4828094;29;20456;-92
2021/03/29 15:21:41;;;;;;;15.63;2.90;;;19.90;99.90;;;-143.32;24.13;55457.09;4830108;29;20467;-92
2021/03/29 15:24:46;;;;;;;7.43;2.73;;;19.90;99.90;;;-143.32;23.67;55477.31;4827841;29;20481;-92
2021/03/29 15:27:23;;;;;;;5.30;3.00;;;19.90;99.90;;;-143.32;23.80;55515.72;4828552;29;20467;-93
2021/03/29 15:30:04;;;;;;;8.17;3.10;;;19.90;99.90;;;-143.32;24.20;55477.31;4826718;29;20448;-90
2021/03/29 15:32:32;;;;;;;7.67;3.23;;;19.90;99.90;;;-143.32;24.36;55461.13;4825857;29;20969;-89
2021/03/29 15:34:59;;;;;;;7.13;2.97;;;19.90;99.90;;;-143.32;24.18;55521.78;4825684;29;20974;-90
2021/03/29 15:37:26;;;;;;;7.03;3.30;;;19.90;99.90;;;-143.32;24.23;55527.84;4825766;29;20487;-93
2021/03/29 15:39:53;;;;;;;8.53;3.10;;;19.80;99.90;;;-143.32;24.34;55503.59;4826206;29;20495;-90
2021/03/29 15:42:27;;;;;;;9.43;3.57;;;19.80;99.90;;;-143.32;24.44;55473.28;4812603;29;20457;-92
2021/03/29 15:44:54;;;;;;;10.07;2.90;;;19.80;99.90;;;-143.32;24.61;55531.88;4807875;29;20468;-93
2021/03/29 15:47:21;;;;;;;7.33;3.30;;;19.80;99.90;;;-143.32;24.70;55525.81;4808828;29;20551;-90
2021/03/29 15:49:48;;;;;;;7.60;2.63;;;19.80;99.90;;;-143.32;24.62;55511.66;4809800;29;20468;-90
2021/03/29 15:52:15;;;;;;;5.97;2.97;;;19.80;99.90;;;-143.32;24.73;55523.78;4828059;29;20483;-90
2021/03/29 15:54:41;;;;;;;13.70;3.30;;;19.70;99.90;;;-143.32;24.60;55533.91;4827737;29;20460;-91
2021/03/29 15:57:11;;;;;;;9.67;3.50;;;19.70;99.90;;;-143.32;24.68;55517.72;4829875;29;20456;-91
2021/03/29 15:59:39;;;;;;;6.00;2.90;;;19.70;99.90;;;-143.32;24.75;55515.72;4827599;29;20543;-92
2021/03/29 16:02:12;;;;;;;10.70;3.87;;;19.60;99.90;;;-143.32;24.70;55548.03;4826216;29;20460;-91
2021/03/29 16:04:40;;;;;;;7.43;2.73;;;19.60;99.90;;;-143.32;24.97;55521.78;4826603;29;20529;-92
2021/03/29 16:07:07;;;;;;;8.63;2.90;;;19.60;99.90;;;-143.32;24.92;55515.72;4825924;29;20474;-92
2021/03/29 16:14:21;;;;;;;18.97;6.20;;;19.60;99.90;;;-143.32;24.78;55546.03;4733845;30;20468;-90
2021/03/29 16:16:49;;;;;;;5.20;2.90;;;19.50;99.90;;;-143.32;24.60;55582.41;4757859;29;20554;-90
2021/03/29 16:19:16;;;;;;;5.90;3.20;;;19.50;99.90;;;-143.32;24.58;55578.34;4807147;29;20457;-90
2021/03/29 16:21:45;;;;;;;6.60;3.10;;;19.50;99.90;;;-143.32;24.66;55592.50;4806802;29;20481;-91
2021/03/29 16:24:17;;;;;;;11.20;2.40;;;19.50;99.90;;;-143.32;24.85;55548.03;4806865;29;20965;-90
2021/03/29 16:26:48;;;;;;;6.17;2.73;;;19.50;99.90;;;-143.32;25.27;55548.03;4807072;29;20461;-92
2021/03/29 16:29:21;;;;;;;14.33;2.70;;;19.40;99.90;;;-143.32;25.20;55544.00;4806890;29;21005;-90
2021/03/29 16:31:49;;;;;;;9.37;2.77;;;19.30;99.90;;;-143.32;25.11;55580.38;4807695;29;20457;-90
2021/03/29 16:34:16;;;;;;;7.10;2.70;;;19.20;99.90;;;-143.32;24.75;55614.75;4806539;29;20469;-89
2021/03/29 16:36:45;;;;;;;12.47;2.67;;;19.20;99.90;;;-143.32;24.80;55586.44;4808120;29;20457;-90
2021/03/29 16:39:12;;;;;;;10.03;2.60;;;19.20;99.90;;;-143.32;24.70;55645.06;4806929;29;20488;-91
2021/03/29 16:45:23;;;;;;;6.10;2.80;;;19.10;99.90;;;-143.32;24.99;55647.06;4808242;29;20424;-90
2021/03/29 16:47:52;;;;;;;3.97;2.73;;;19.10;99.90;;;-143.32;25.21;55590.47;4807607;29;20497;-91
2021/03/29 16:50:20;;;;;;;11.63;3.13;;;19.20;99.90;;;-143.32;25.23;55574.31;4806829;29;20540;-91
2021/03/29 16:52:47;;;;;;;3.23;2.53;;;19.10;99.90;;;-143.32;24.95;55618.78;4807335;29;20493;-92
2021/03/29 16:55:15;;;;;;;7.40;2.77;;;19.20;99.90;;;-143.32;25.33;55612.72;4807439;29;20860;-91
2021/03/29 16:57:41;;;;;;;14.33;3.17;;;19.20;99.90;;;-143.32;25.43;55616.75;4806611;29;20468;-92
2021/03/29 17:00:16;;;;;;;7.90;2.60;;;18.80;99.90;;;-143.32;25.54;55610.69;4807290;29;20457;-91
2021/03/29 17:03:02;;;;;;;8.83;2.87;;;18.90;99.90;;;-143.32;25.30;55604.63;4806826;29;20837;-91
2021/03/29 17:05:30;;;;;;;17.70;2.73;;;18.80;99.90;;;-143.32;25.34;55608.69;4807382;29;20472;-91
2021/03/29 17:07:57;;;;;;;6.07;2.90;;;18.80;99.90;;;-143.32;25.40;55630.91;4807120;29;21049;-92
2021/03/29 17:10:24;;;;;;;17.07;3.30;;;18.80;99.90;;;-143.32;25.42;55598.56;4806338;29;20465;-91
2021/03/29 17:12:53;;;;;;;16.53;3.70;;;18.60;99.90;;;-143.32;25.57;55620.81;4805968;29;20977;-90
2021/03/29 17:15:27;;;;;;;5.90;2.53;;;18.60;99.90;;;-143.32;25.90;55655.16;4807614;29;20966;-91
2021/03/29 17:18:03;;;;;;;8.83;3.43;;;18.50;99.90;;;-143.32;25.84;55641.00;4806698;29;20446;-89
2021/03/29 17:20:35;;;;;;;7.93;3.17;;;18.40;99.90;;;-143.32;25.77;55630.91;4807082;29;20457;-90
2021/03/29 17:23:02;;;;;;;5.40;2.93;;;18.40;99.90;;;-143.32;26.02;55632.94;4809377;29;20445;-90
2021/03/29 17:25:30;;;;;;;8.17;3.00;;;18.30;99.90;;;-143.32;26.08;55600.59;4810591;29;20521;-90
2021/03/29 17:27:59;;;;;;;15.53;3.60;;;18.20;99.90;;;-143.32;26.33;55614.75;4810280;29;20553;-93
2021/03/29 17:30:26;;;;;;;6.10;3.33;;;18.00;99.90;;;-143.32;26.40;55624.84;4810473;29;20483;-91
2021/03/29 17:32:53;;;;;;;12.13;3.43;;;18.00;99.90;;;-143.32;26.54;55616.75;4810499;29;20528;-91
2021/03/29 17:35:23;;;;;;;9.00;3.30;;;18.00;99.90;;;-143.32;26.62;55636.97;4810071;29;20493;-92
2021/03/29 17:37:51;;;;;;;9.03;3.57;;;18.00;99.90;;;-143.32;26.53;55616.75;4810511;29;20499;-91
2021/03/29 17:40:19;;;;;;;6.00;3.40;;;17.90;99.90;;;-143.32;26.71;55616.75;4810984;29;20468;-91
2021/03/29 17:42:46;;;;;;;11.53;3.60;;;17.80;99.90;;;-143.32;26.73;55610.69;4810808;29;20682;-92
2021/03/29 17:45:32;;;;;;;6.70;3.60;;;17.60;99.90;;;-143.32;27.00;55651.13;4814310;29;20468;-91
2021/03/29 17:47:59;;;;;;;11.30;4.97;;;17.60;99.90;;;-143.32;27.12;55639.00;4813771;29;20488;-92
2021/03/29 17:50:26;;;;;;;9.53;3.63;;;17.40;99.90;;;-143.32;27.17;55620.81;4813292;29;20945;-91
2021/03/29 17:52:54;;;;;;;8.57;3.20;;;17.40;99.90;;;-143.32;27.21;55655.16;4810422;29;20873;-93
2021/03/29 17:55:23;;;;;;;8.10;3.77;;;17.30;99.90;;;-143.32;27.21;55614.75;4809990;29;20480;-91
2021/03/29 17:57:50;;;;;;;6.57;3.40;;;17.30;99.90;;;-143.32;27.62;55630.91;4810435;29;20461;-92
2021/03/29 18:00:18;;;;;;;9.00;3.50;;;17.30;99.90;;;-143.32;27.61;55649.09;4810488;29;20460;-91
2021/03/29 18:02:45;;;;;;;5.60;3.63;;;17.10;99.90;;;-143.32;27.74;55636.97;4810228;29;20461;-92
2021/03/29 18:05:23;;;;;;;9.57;4.07;;;17.00;99.90;;;-143.32;27.82;55653.13;4809952;29;20465;-92
2021/03/29 18:07:56;;;;;;;14.70;3.53;;;17.00;99.90;;;-143.32;27.98;55651.13;4809780;29;20861;-91
2021/03/29 18:10:23;;;;;;;8.60;3.90;;;16.90;99.90;;;-143.32;28.02;55582.41;4810056;29;20441;-92
2021/03/29 18:12:53;;;;;;;10.80;3.87;;;16.90;99.90;;;-143.32;28.08;55628.88;4810080;29;20557;-90
2021/03/29 18:15:20;;;;;;;10.10;3.87;;;16.90;99.90;;;-143.32;28.13;55626.88;4810775;29;20441;-92
2021/03/29 18:17:47;;;;;;;17.57;4.97;;;17.00;99.90;;;-143.32;28.34;55628.88;4809810;29;20457;-91
2021/03/29 18:20:17;;;;;;;5.63;3.30;;;16.90;99.90;;;-143.32;28.45;55616.75;4810615;29;20447;-91
2021/03/29 18:22:43;;;;;;;10.67;4.03;;;16.80;99.90;;;-143.32;28.74;55604.63;4809440;29;20468;-94
2021/03/29 18:25:13;;;;;;;14.07;3.87;;;16.70;99.90;;;-143.32;28.97;55616.75;4809675;29;20519;-91
2021/03/29 18:27:50;;;;;;;15.17;3.73;;;16.60;99.90;;;-143.32;28.94;55618.78;4809479;29;20504;-92
2021/03/29 18:30:19;;;;;;;14.80;4.90;;;16.60;99.90;;;-143.32;29.07;55622.81;4809659;29;20517;-93
2021/03/29 18:32:46;;;;;;;8.83;3.87;;;16.60;99.90;;;-143.32;28.96;55622.81;4809706;29;20457;-92
2021/03/29 18:35:15;;;;;;;12.23;4.30;;;16.50;99.90;;;-143.32;29.34;55544.00;4809123;29;20461;-91
2021/03/29 18:37:47;;;;;;;10.47;3.60;;;16.50;99.90;;;-143.32;29.28;55588.47;4794557;29;20457;-92
2021/03/29 18:40:16;;;;;;;10.00;3.80;;;16.50;99.90;;;-143.32;29.64;55596.56;4809640;29;20516;-90
2021/03/29 18:42:45;;;;;;;8.97;3.17;;;16.30;99.90;;;-143.32;29.97;55570.28;4809163;29;20548;-92
2021/03/29 18:45:12;;;;;;;12.70;4.33;;;16.10;99.90;;;-143.32;30.16;55608.69;4809708;29;20525;-91
2021/03/29 18:47:39;;;;;;;11.63;3.87;;;16.00;99.90;;;-143.32;30.59;55596.56;4808979;29;21043;-91
2021/03/29 18:50:08;;;;;;;11.20;4.07;;;16.00;99.90;;;-143.32;30.86;55582.41;4810112;29;20448;-93
2021/03/29 18:52:35;;;;;;;8.53;4.60;;;15.70;99.90;;;-143.32;31.39;55590.47;4808961;29;20471;-92
2021/03/29 18:55:09;;;;;;;10.97;3.90;;;15.60;99.90;;;-143.32;31.27;55568.25;4808740;29;20453;-91
2021/03/29 18:57:38;;;;;;;9.13;4.97;;;15.50;99.90;;;-143.32;31.47;55566.22;4808932;29;20457;-92
2021/03/29 19:00:07;;;;;;;11.67;4.83;;;15.50;99.90;;;-143.32;31.70;55554.09;4808646;29;20972;-92
2021/03/29 19:02:34;;;;;;;14.33;5.17;;;15.50;99.90;;;-143.32;31.86;55566.22;4809189;29;20461;-92
2021/03/29 19:05:03;;;;;;;8.20;4.83;;;15.50;99.90;;;-143.32;32.26;55560.16;4808507;29;21001;-92
2021/03/29 19:07:30;;;;;;;13.93;4.90;;;15.40;99.90;;;-143.32;32.37;55552.09;4808996;29;20469;-91
2021/03/29 19:09:57;;;;;;;12.47;4.83;;;15.30;99.90;;;-143.32;32.64;55576.34;4809010;29;20498;-92
2021/03/29 19:12:27;;;;;;;8.67;5.43;;;15.20;99.90;;;-143.32;32.91;55544.00;4808432;29;20472;-93
2021/03/29 19:14:54;;;;;;;19.70;5.57;;;15.10;99.90;;;-143.32;33.24;55539.97;4808656;29;20446;-91
2021/03/29 19:17:21;;;;;;;14.70;6.07;;;15.00;99.90;;;-143.32;33.23;55552.09;4808250;29;20497;-91
2021/03/29 19:19:48;;;;;;;10.70;5.13;;;14.90;99.90;;;-143.32;33.84;55529.84;4808676;29;20453;-91
2021/03/29 19:22:18;;;;;;;13.13;5.60;;;14.80;99.90;;;-143.32;33.96;55564.22;4809346;29;20925;-93
2021/03/29 19:24:49;;;;;;;10.97;6.10;;;14.70;99.90;;;-143.32;34.32;55572.28;4808545;29;20492;-90
2021/03/29 19:27:25;;;;;;;14.63;6.47;;;14.60;99.90;;;-143.32;34.45;55570.28;4808377;29;20506;-92
2021/03/29 19:29:56;;;;;;;13.40;6.07;;;14.60;99.90;;;-143.32;34.96;55523.78;4809137;29;20488;-92
2021/03/29 19:32:27;;;;;;;13.03;6.37;;;14.50;99.90;;;-143.32;35.49;55515.72;4808691;29;20468;-92
2021/03/29 19:34:56;;;;;;;16.90;6.80;;;14.40;99.90;;;-143.32;35.51;55546.03;4808492;29;20525;-91
2021/03/29 19:40:14;;;;;;;13.10;6.40;;;14.30;99.90;;;-143.32;35.98;55554.09;4805827;29;20803;-92
2021/03/29 19:42:51;;;;;;;10.20;6.13;;;14.20;99.90;;;-143.32;36.39;55491.47;4808484;29;20457;-91
2021/03/29 19:45:18;;;;;;;15.63;6.90;;;14.20;99.90;;;-143.32;36.40;55489.44;4808006;29;20441;-91
2021/03/29 19:51:32;;;;;;;29.47;7.33;;;14.20;99.90;;;-143.32;36.18;55537.94;4807874;29;20417;-91
2021/03/29 19:53:59;;;;;;;14.57;7.23;;;14.20;99.90;;;-143.32;35.76;55525.81;4808636;29;20465;-91
2021/03/29 19:56:26;;;;;;;14.83;7.53;;;14.20;99.90;;;-143.32;36.05;55529.84;4807568;29;20468;-90
2021/03/29 19:58:56;;;;;;;18.23;8.13;;;14.30;99.90;;;-143.32;35.93;55507.63;4807962;29;21033;-90
2021/03/29 20:01:28;;;;;;;24.13;6.67;;;14.30;99.90;;;-143.32;35.94;55515.72;4807612;29;20445;-91
2021/03/29 20:03:55;;;;;;;23.63;7.70;;;14.30;99.90;;;-143.32;36.13;55513.69;4808099;29;20540;-91
2021/03/29 20:07:29;;;;;;;14.50;6.67;;;14.30;99.90;;;-143.32;36.48;55505.59;4807697;29;20837;-92
2021/03/29 20:09:59;;;;;;;20.83;7.57;;;14.30;99.90;;;-143.32;36.87;55529.84;4807713;29;20461;-90
2021/03/29 20:12:26;;;;;;;19.37;6.90;;;14.20;99.90;;;-143.32;37.15;55495.50;4807596;29;21026;-89
2021/03/29 20:21:58;;;;;;;13.00;6.70;;;13.90;99.90;;;-143.32;37.83;55537.94;4752516;30;20613;-90
2021/03/29 20:24:27;;;;;;;23.77;6.53;;;13.70;99.90;;;-143.32;37.54;55531.88;4757295;30;20444;-91
2021/03/29 20:26:55;;;;;;;22.33;6.30;;;13.80;99.90;;;-143.32;37.48;55513.69;4780887;29;20461;-92
2021/03/29 20:29:22;;;;;;;14.70;5.77;;;13.70;99.90;;;-143.32;37.66;55471.25;4807339;29;20485;-92
2021/03/29 20:35:35;;;;;;;12.03;5.80;;;13.60;99.90;;;-143.32;38.64;55475.28;4809575;29;20428;-90
2021/03/29 20:38:02;;;;;;;12.30;6.23;;;13.70;99.90;;;-143.32;38.31;55517.72;4807324;29;20465;-90
2021/03/29 20:40:29;;;;;;;16.50;6.17;;;13.60;99.90;;;-143.32;38.37;55487.41;4807206;29;20479;-91
2021/03/29 20:42:59;;;;;;;16.70;6.60;;;13.60;99.90;;;-143.32;38.20;55507.63;4807325;29;20468;-90
2021/03/29 20:45:25;;;;;;;13.33;5.93;;;13.60;99.90;;;-143.32;38.06;55501.56;4817862;29;20455;-93
2021/03/29 20:47:52;;;;;;;15.83;6.10;;;13.70;99.90;;;-143.32;37.96;55463.16;4825485;29;20500;-93
2021/03/29 20:50:19;;;;;;;17.10;6.70;;;13.70;99.90;;;-143.32;38.25;55485.41;4825497;29;20490;-90
2021/03/29 20:52:47;;;;;;;17.37;6.90;;;13.70;99.90;;;-143.32;38.28;55513.69;4825386;29;20466;-91
2021/03/29 20:55:15;;;;;;;14.83;5.90;;;13.60;99.90;;;-143.32;38.41;55493.47;4825973;29;20455;-93
2021/03/29 20:57:41;;;;;;;12.67;6.27;;;13.70;99.90;;;-143.32;38.99;55479.34;4825450;29;20462;-91
2021/03/29 21:00:22;;;;;;;18.87;7.53;;;13.60;99.90;;;-143.32;40.01;55483.38;4825469;29;20963;-92
2021/03/29 21:02:48;;;;;;;15.83;7.13;;;13.50;99.90;;;-143.32;40.45;55527.84;4825310;29;20535;-92
2021/03/29 21:05:18;;;;;;;19.77;8.20;;;13.40;99.90;;;-143.32;41.00;55477.31;4825463;29;20485;-89
2021/03/29 21:07:45;;;;;;;15.10;7.70;;;13.20;99.90;;;-143.32;41.06;55497.53;4825265;29;20848;-89
2021/03/29 21:10:17;;;;;;;17.80;8.40;;;13.10;99.90;;;-143.32;41.66;55459.13;4825303;29;20556;-90
2021/03/29 21:12:45;;;;;;;15.00;6.70;;;13.10;99.90;;;-143.32;40.82;55491.47;4825496;29;20448;-89
2021/03/29 21:15:16;;;;;;;13.70;6.77;;;13.10;99.90;;;-143.32;40.77;55481.34;4824907;29;20506;-88
2021/03/29 21:17:43;;;;;;;23.20;6.70;;;13.10;99.90;;;-143.32;40.78;55487.41;4825137;29;20446;-91
2021/03/29 21:20:16;;;;;;;16.60;6.60;;;13.20;99.90;;;-143.32;41.12;55455.06;4825302;29;20951;-88